sensor_id;sensor_type;location;lat;lon;timestamp;P1;durP1;ratioP1;P2;durP2;ratioP2
6342;SDS011;3204;42.698;23.298;2023-04-25T00:02:18;3.75;;;3.55;;
6342;SDS011;3204;42.698;23.298;2023-04-25T00:04:44;4.20;;;4.00;;
6342;SDS011;3204;42.698;23.298;2023-04-25T00:07:09;3.70;;;3.40;;
6342;SDS011;3204;42.698;23.298;2023-04-25T00:09:35;3.63;;;3.38;;
6342;SDS011;3204;42.698;23.298;2023-04-25T00:12:01;3.15;;;3.05;;
6342;SDS011;3204;42.698;23.298;2023-04-25T00:14:26;3.85;;;3.63;;
6342;SDS011;3204;42.698;23.298;2023-04-25T00:16:52;3.90;;;3.60;;
6342;SDS011;3204;42.698;23.298;2023-04-25T00:19:19;4.00;;;3.70;;
6342;SDS011;3204;42.698;23.298;2023-04-25T00:21:44;3.50;;;3.30;;
6342;SDS011;3204;42.698;23.298;2023-04-25T00:24:11;4.00;;;3.80;;
6342;SDS011;3204;42.698;23.298;2023-04-25T00:26:36;4.43;;;4.20;;
6342;SDS011;3204;42.698;23.298;2023-04-25T00:29:02;5.00;;;3.80;;
6342;SDS011;3204;42.698;23.298;2023-04-25T00:31:28;4.70;;;4.50;;
6342;SDS011;3204;42.698;23.298;2023-04-25T00:33:54;4.32;;;3.92;;
6342;SDS011;3204;42.698;23.298;2023-04-25T00:36:20;3.55;;;3.38;;
6342;SDS011;3204;42.698;23.298;2023-04-25T00:38:45;4.32;;;3.92;;
6342;SDS011;3204;42.698;23.298;2023-04-25T00:41:11;3.88;;;3.67;;
6342;SDS011;3204;42.698;23.298;2023-04-25T00:43:37;4.30;;;4.10;;
6342;SDS011;3204;42.698;23.298;2023-04-25T00:46:02;4.60;;;4.25;;
6342;SDS011;3204;42.698;23.298;2023-04-25T00:48:28;4.88;;;4.57;;
6342;SDS011;3204;42.698;23.298;2023-04-25T00:50:55;5.05;;;4.68;;
6342;SDS011;3204;42.698;23.298;2023-04-25T00:53:23;5.72;;;4.80;;
6342;SDS011;3204;42.698;23.298;2023-04-25T00:55:50;4.78;;;4.45;;
6342;SDS011;3204;42.698;23.298;2023-04-25T00:58:17;4.18;;;3.88;;
6342;SDS011;3204;42.698;23.298;2023-04-25T01:00:43;4.85;;;4.45;;
6342;SDS011;3204;42.698;23.298;2023-04-25T01:03:10;4.90;;;4.57;;
6342;SDS011;3204;42.698;23.298;2023-04-25T01:05:35;4.65;;;4.35;;
6342;SDS011;3204;42.698;23.298;2023-04-25T01:08:01;5.53;;;5.13;;
6342;SDS011;3204;42.698;23.298;2023-04-25T01:10:27;5.95;;;5.43;;
6342;SDS011;3204;42.698;23.298;2023-04-25T01:12:52;6.50;;;5.90;;
6342;SDS011;3204;42.698;23.298;2023-04-25T01:15:18;6.45;;;5.95;;
6342;SDS011;3204;42.698;23.298;2023-04-25T01:17:43;6.65;;;6.05;;
6342;SDS011;3204;42.698;23.298;2023-04-25T01:20:09;6.22;;;5.82;;
6342;SDS011;3204;42.698;23.298;2023-04-25T01:22:36;5.90;;;5.60;;
6342;SDS011;3204;42.698;23.298;2023-04-25T01:25:01;6.78;;;6.25;;
6342;SDS011;3204;42.698;23.298;2023-04-25T01:27:27;6.60;;;6.20;;
6342;SDS011;3204;42.698;23.298;2023-04-25T01:29:53;6.22;;;5.82;;
6342;SDS011;3204;42.698;23.298;2023-04-25T01:32:20;6.45;;;6.05;;
6342;SDS011;3204;42.698;23.298;2023-04-25T01:34:47;6.60;;;6.13;;
6342;SDS011;3204;42.698;23.298;2023-04-25T01:37:13;6.43;;;6.03;;
6342;SDS011;3204;42.698;23.298;2023-04-25T01:39:38;6.72;;;6.22;;
6342;SDS011;3204;42.698;23.298;2023-04-25T01:42:04;6.47;;;6.00;;
6342;SDS011;3204;42.698;23.298;2023-04-25T01:44:29;6.47;;;5.97;;
6342;SDS011;3204;42.698;23.298;2023-04-25T01:46:55;6.03;;;5.53;;
6342;SDS011;3204;42.698;23.298;2023-04-25T01:49:20;6.45;;;6.05;;
6342;SDS011;3204;42.698;23.298;2023-04-25T01:51:46;6.30;;;5.90;;
6342;SDS011;3204;42.698;23.298;2023-04-25T01:54:11;7.05;;;6.53;;
6342;SDS011;3204;42.698;23.298;2023-04-25T01:56:38;5.35;;;5.05;;
6342;SDS011;3204;42.698;23.298;2023-04-25T01:59:04;5.78;;;5.28;;
6342;SDS011;3204;42.698;23.298;2023-04-25T02:01:30;5.63;;;5.32;;
6342;SDS011;3204;42.698;23.298;2023-04-25T02:03:56;6.93;;;6.50;;
6342;SDS011;3204;42.698;23.298;2023-04-25T02:06:21;7.43;;;6.93;;
6342;SDS011;3204;42.698;23.298;2023-04-25T02:08:47;7.63;;;6.97;;
6342;SDS011;3204;42.698;23.298;2023-04-25T02:11:12;7.65;;;7.15;;
6342;SDS011;3204;42.698;23.298;2023-04-25T02:13:38;6.75;;;6.35;;
6342;SDS011;3204;42.698;23.298;2023-04-25T02:16:04;5.90;;;5.50;;
6342;SDS011;3204;42.698;23.298;2023-04-25T02:18:29;6.05;;;5.70;;
6342;SDS011;3204;42.698;23.298;2023-04-25T02:20:56;6.25;;;5.78;;
6342;SDS011;3204;42.698;23.298;2023-04-25T02:23:22;5.80;;;5.50;;
6342;SDS011;3204;42.698;23.298;2023-04-25T02:25:48;20.98;;;13.73;;
6342;SDS011;3204;42.698;23.298;2023-04-25T02:28:14;16.48;;;12.38;;
6342;SDS011;3204;42.698;23.298;2023-04-25T02:30:40;12.05;;;10.85;;
6342;SDS011;3204;42.698;23.298;2023-04-25T02:33:05;11.77;;;10.18;;
6342;SDS011;3204;42.698;23.298;2023-04-25T02:35:31;7.93;;;7.22;;
6342;SDS011;3204;42.698;23.298;2023-04-25T02:37:56;7.53;;;7.05;;
6342;SDS011;3204;42.698;23.298;2023-04-25T02:40:21;8.38;;;7.68;;
6342;SDS011;3204;42.698;23.298;2023-04-25T02:42:47;7.97;;;7.40;;
6342;SDS011;3204;42.698;23.298;2023-04-25T02:45:13;9.85;;;8.90;;
6342;SDS011;3204;42.698;23.298;2023-04-25T02:47:39;8.65;;;7.85;;
6342;SDS011;3204;42.698;23.298;2023-04-25T02:50:05;8.52;;;7.88;;
6342;SDS011;3204;42.698;23.298;2023-04-25T02:52:31;6.00;;;5.60;;
6342;SDS011;3204;42.698;23.298;2023-04-25T02:54:56;5.90;;;5.60;;
6342;SDS011;3204;42.698;23.298;2023-04-25T02:57:22;5.78;;;5.38;;
6342;SDS011;3204;42.698;23.298;2023-04-25T02:59:47;7.40;;;6.88;;
6342;SDS011;3204;42.698;23.298;2023-04-25T03:02:13;9.13;;;8.57;;
6342;SDS011;3204;42.698;23.298;2023-04-25T03:04:38;8.93;;;8.43;;
6342;SDS011;3204;42.698;23.298;2023-04-25T03:07:04;8.13;;;7.63;;
6342;SDS011;3204;42.698;23.298;2023-04-25T03:09:30;6.95;;;6.50;;
6342;SDS011;3204;42.698;23.298;2023-04-25T03:11:55;8.00;;;7.50;;
6342;SDS011;3204;42.698;23.298;2023-04-25T03:14:21;8.05;;;7.55;;
6342;SDS011;3204;42.698;23.298;2023-04-25T03:16:46;7.93;;;7.30;;
6342;SDS011;3204;42.698;23.298;2023-04-25T03:19:12;7.28;;;6.80;;
6342;SDS011;3204;42.698;23.298;2023-04-25T03:21:37;8.05;;;7.53;;
6342;SDS011;3204;42.698;23.298;2023-04-25T03:24:03;7.00;;;6.47;;
6342;SDS011;3204;42.698;23.298;2023-04-25T03:26:29;6.40;;;5.88;;
6342;SDS011;3204;42.698;23.298;2023-04-25T03:28:55;6.65;;;6.07;;
6342;SDS011;3204;42.698;23.298;2023-04-25T03:31:21;6.47;;;6.18;;
6342;SDS011;3204;42.698;23.298;2023-04-25T03:33:47;5.70;;;5.25;;
6342;SDS011;3204;42.698;23.298;2023-04-25T03:36:12;6.25;;;5.82;;
6342;SDS011;3204;42.698;23.298;2023-04-25T03:38:38;6.03;;;5.63;;
6342;SDS011;3204;42.698;23.298;2023-04-25T03:41:04;6.22;;;5.82;;
6342;SDS011;3204;42.698;23.298;2023-04-25T03:43:29;6.38;;;5.97;;
6342;SDS011;3204;42.698;23.298;2023-04-25T03:45:55;6.45;;;6.05;;
6342;SDS011;3204;42.698;23.298;2023-04-25T03:48:21;6.32;;;5.93;;
6342;SDS011;3204;42.698;23.298;2023-04-25T03:50:47;7.10;;;6.60;;
6342;SDS011;3204;42.698;23.298;2023-04-25T03:53:12;6.05;;;5.72;;
6342;SDS011;3204;42.698;23.298;2023-04-25T03:55:38;6.93;;;6.32;;
6342;SDS011;3204;42.698;23.298;2023-04-25T03:58:03;7.13;;;6.57;;
6342;SDS011;3204;42.698;23.298;2023-04-25T04:00:29;6.85;;;6.45;;
6342;SDS011;3204;42.698;23.298;2023-04-25T04:02:55;6.70;;;6.30;;
6342;SDS011;3204;42.698;23.298;2023-04-25T04:05:21;6.55;;;6.15;;
6342;SDS011;3204;42.698;23.298;2023-04-25T04:07:47;6.57;;;6.18;;
6342;SDS011;3204;42.698;23.298;2023-04-25T04:10:12;6.72;;;6.07;;
6342;SDS011;3204;42.698;23.298;2023-04-25T04:12:38;7.82;;;7.22;;
6342;SDS011;3204;42.698;23.298;2023-04-25T04:15:03;7.05;;;6.55;;
6342;SDS011;3204;42.698;23.298;2023-04-25T04:17:30;7.38;;;6.93;;
6342;SDS011;3204;42.698;23.298;2023-04-25T04:19:56;6.80;;;6.40;;
6342;SDS011;3204;42.698;23.298;2023-04-25T04:22:22;7.63;;;7.13;;
6342;SDS011;3204;42.698;23.298;2023-04-25T04:24:48;7.63;;;7.15;;
6342;SDS011;3204;42.698;23.298;2023-04-25T04:27:15;7.45;;;7.05;;
6342;SDS011;3204;42.698;23.298;2023-04-25T04:29:44;7.72;;;7.22;;
6342;SDS011;3204;42.698;23.298;2023-04-25T04:32:10;7.70;;;7.30;;
6342;SDS011;3204;42.698;23.298;2023-04-25T04:34:37;7.40;;;7.00;;
6342;SDS011;3204;42.698;23.298;2023-04-25T04:37:02;7.57;;;7.13;;
6342;SDS011;3204;42.698;23.298;2023-04-25T04:39:28;8.68;;;8.00;;
6342;SDS011;3204;42.698;23.298;2023-04-25T04:41:53;8.15;;;7.50;;
6342;SDS011;3204;42.698;23.298;2023-04-25T04:44:19;8.20;;;7.57;;
6342;SDS011;3204;42.698;23.298;2023-04-25T04:46:45;8.63;;;8.00;;
6342;SDS011;3204;42.698;23.298;2023-04-25T04:49:11;8.55;;;7.95;;
6342;SDS011;3204;42.698;23.298;2023-04-25T04:51:38;10.68;;;9.43;;
6342;SDS011;3204;42.698;23.298;2023-04-25T04:54:05;8.90;;;8.05;;
6342;SDS011;3204;42.698;23.298;2023-04-25T04:56:31;8.00;;;7.50;;
6342;SDS011;3204;42.698;23.298;2023-04-25T04:58:59;9.13;;;8.43;;
6342;SDS011;3204;42.698;23.298;2023-04-25T05:01:26;8.80;;;8.20;;
6342;SDS011;3204;42.698;23.298;2023-04-25T05:03:52;9.10;;;8.27;;
6342;SDS011;3204;42.698;23.298;2023-04-25T05:06:18;9.30;;;8.55;;
6342;SDS011;3204;42.698;23.298;2023-04-25T05:08:44;9.88;;;9.15;;
6342;SDS011;3204;42.698;23.298;2023-04-25T05:11:09;9.32;;;8.52;;
6342;SDS011;3204;42.698;23.298;2023-04-25T05:13:35;11.60;;;10.70;;
6342;SDS011;3204;42.698;23.298;2023-04-25T05:16:01;12.18;;;10.82;;
6342;SDS011;3204;42.698;23.298;2023-04-25T05:18:26;10.45;;;9.73;;
6342;SDS011;3204;42.698;23.298;2023-04-25T05:20:51;10.43;;;9.50;;
6342;SDS011;3204;42.698;23.298;2023-04-25T05:23:18;13.48;;;10.27;;
6342;SDS011;3204;42.698;23.298;2023-04-25T05:25:43;10.52;;;9.40;;
6342;SDS011;3204;42.698;23.298;2023-04-25T05:28:10;10.43;;;9.68;;
6342;SDS011;3204;42.698;23.298;2023-04-25T05:30:37;12.18;;;10.95;;
6342;SDS011;3204;42.698;23.298;2023-04-25T05:33:02;11.35;;;9.57;;
6342;SDS011;3204;42.698;23.298;2023-04-25T05:35:28;9.88;;;9.07;;
6342;SDS011;3204;42.698;23.298;2023-04-25T05:37:53;10.50;;;9.60;;
6342;SDS011;3204;42.698;23.298;2023-04-25T05:40:19;9.25;;;8.60;;
6342;SDS011;3204;42.698;23.298;2023-04-25T05:42:44;10.32;;;9.52;;
6342;SDS011;3204;42.698;23.298;2023-04-25T05:45:10;11.32;;;9.85;;
6342;SDS011;3204;42.698;23.298;2023-04-25T05:47:35;11.80;;;8.90;;
6342;SDS011;3204;42.698;23.298;2023-04-25T05:50:00;10.07;;;9.23;;
6342;SDS011;3204;42.698;23.298;2023-04-25T05:52:27;10.57;;;9.68;;
6342;SDS011;3204;42.698;23.298;2023-04-25T05:54:52;10.05;;;9.25;;
6342;SDS011;3204;42.698;23.298;2023-04-25T05:57:19;9.35;;;8.65;;
6342;SDS011;3204;42.698;23.298;2023-04-25T05:59:45;10.55;;;9.65;;
6342;SDS011;3204;42.698;23.298;2023-04-25T06:02:11;10.45;;;9.45;;
6342;SDS011;3204;42.698;23.298;2023-04-25T06:04:36;10.88;;;9.88;;
6342;SDS011;3204;42.698;23.298;2023-04-25T06:07:02;10.85;;;9.88;;
6342;SDS011;3204;42.698;23.298;2023-04-25T06:09:27;11.68;;;10.60;;
6342;SDS011;3204;42.698;23.298;2023-04-25T06:11:52;11.95;;;10.90;;
6342;SDS011;3204;42.698;23.298;2023-04-25T06:14:18;10.68;;;9.85;;
6342;SDS011;3204;42.698;23.298;2023-04-25T06:16:43;12.45;;;11.25;;
6342;SDS011;3204;42.698;23.298;2023-04-25T06:19:09;12.32;;;11.18;;
6342;SDS011;3204;42.698;23.298;2023-04-25T06:21:34;12.75;;;11.00;;
6342;SDS011;3204;42.698;23.298;2023-04-25T06:24:01;11.20;;;10.02;;
6342;SDS011;3204;42.698;23.298;2023-04-25T06:26:26;12.13;;;10.82;;
6342;SDS011;3204;42.698;23.298;2023-04-25T06:28:52;11.63;;;10.57;;
6342;SDS011;3204;42.698;23.298;2023-04-25T06:31:17;13.05;;;11.65;;
6342;SDS011;3204;42.698;23.298;2023-04-25T06:33:42;12.27;;;10.15;;
6342;SDS011;3204;42.698;23.298;2023-04-25T06:36:08;9.10;;;8.30;;
6342;SDS011;3204;42.698;23.298;2023-04-25T06:38:33;11.73;;;10.57;;
6342;SDS011;3204;42.698;23.298;2023-04-25T06:41:00;11.20;;;10.00;;
6342;SDS011;3204;42.698;23.298;2023-04-25T06:43:25;11.48;;;10.38;;
6342;SDS011;3204;42.698;23.298;2023-04-25T06:45:51;9.63;;;8.77;;
6342;SDS011;3204;42.698;23.298;2023-04-25T06:48:16;8.15;;;7.47;;
6342;SDS011;3204;42.698;23.298;2023-04-25T06:50:42;9.02;;;8.32;;
6342;SDS011;3204;42.698;23.298;2023-04-25T06:53:07;8.52;;;7.68;;
6342;SDS011;3204;42.698;23.298;2023-04-25T06:55:33;11.98;;;7.93;;
6342;SDS011;3204;42.698;23.298;2023-04-25T06:57:59;6.95;;;6.55;;
6342;SDS011;3204;42.698;23.298;2023-04-25T07:00:25;11.40;;;7.38;;
6342;SDS011;3204;42.698;23.298;2023-04-25T07:02:50;9.02;;;8.23;;
6342;SDS011;3204;42.698;23.298;2023-04-25T07:05:16;8.45;;;7.63;;
6342;SDS011;3204;42.698;23.298;2023-04-25T07:07:42;8.23;;;7.55;;
6342;SDS011;3204;42.698;23.298;2023-04-25T07:10:07;9.23;;;8.20;;
6342;SDS011;3204;42.698;23.298;2023-04-25T07:12:33;9.43;;;8.55;;
6342;SDS011;3204;42.698;23.298;2023-04-25T07:14:58;8.75;;;7.97;;
6342;SDS011;3204;42.698;23.298;2023-04-25T07:17:24;9.50;;;8.63;;
6342;SDS011;3204;42.698;23.298;2023-04-25T07:19:49;9.95;;;9.15;;
6342;SDS011;3204;42.698;23.298;2023-04-25T07:22:15;10.85;;;9.48;;
6342;SDS011;3204;42.698;23.298;2023-04-25T07:24:40;14.18;;;9.82;;
6342;SDS011;3204;42.698;23.298;2023-04-25T07:27:05;15.32;;;9.40;;
6342;SDS011;3204;42.698;23.298;2023-04-25T07:29:31;8.70;;;7.93;;
6342;SDS011;3204;42.698;23.298;2023-04-25T07:31:57;9.60;;;8.90;;
6342;SDS011;3204;42.698;23.298;2023-04-25T07:34:22;9.45;;;8.60;;
6342;SDS011;3204;42.698;23.298;2023-04-25T07:36:48;12.32;;;10.55;;
6342;SDS011;3204;42.698;23.298;2023-04-25T07:39:13;10.77;;;9.77;;
6342;SDS011;3204;42.698;23.298;2023-04-25T07:41:39;10.48;;;9.68;;
6342;SDS011;3204;42.698;23.298;2023-04-25T07:44:04;13.63;;;9.88;;
6342;SDS011;3204;42.698;23.298;2023-04-25T07:46:29;16.02;;;10.38;;
6342;SDS011;3204;42.698;23.298;2023-04-25T07:48:55;13.95;;;10.32;;
6342;SDS011;3204;42.698;23.298;2023-04-25T07:51:20;16.27;;;11.05;;
6342;SDS011;3204;42.698;23.298;2023-04-25T07:53:47;14.52;;;10.75;;
6342;SDS011;3204;42.698;23.298;2023-04-25T07:56:12;11.43;;;10.10;;
6342;SDS011;3204;42.698;23.298;2023-04-25T07:58:38;8.95;;;8.15;;
6342;SDS011;3204;42.698;23.298;2023-04-25T08:01:03;8.82;;;8.07;;
6342;SDS011;3204;42.698;23.298;2023-04-25T08:03:29;12.90;;;8.40;;
6342;SDS011;3204;42.698;23.298;2023-04-25T08:05:55;9.85;;;8.80;;
6342;SDS011;3204;42.698;23.298;2023-04-25T08:08:20;20.90;;;12.00;;
6342;SDS011;3204;42.698;23.298;2023-04-25T08:10:46;13.85;;;9.90;;
6342;SDS011;3204;42.698;23.298;2023-04-25T08:13:13;13.30;;;9.63;;
6342;SDS011;3204;42.698;23.298;2023-04-25T08:15:38;11.02;;;9.60;;
6342;SDS011;3204;42.698;23.298;2023-04-25T08:18:04;11.43;;;9.25;;
6342;SDS011;3204;42.698;23.298;2023-04-25T08:20:30;9.73;;;8.77;;
6342;SDS011;3204;42.698;23.298;2023-04-25T08:22:55;9.50;;;8.75;;
6342;SDS011;3204;42.698;23.298;2023-04-25T08:25:21;11.55;;;9.23;;
6342;SDS011;3204;42.698;23.298;2023-04-25T08:27:46;9.85;;;8.75;;
6342;SDS011;3204;42.698;23.298;2023-04-25T08:30:12;11.55;;;9.50;;
6342;SDS011;3204;42.698;23.298;2023-04-25T08:32:38;11.90;;;10.40;;
6342;SDS011;3204;42.698;23.298;2023-04-25T08:35:03;11.15;;;9.70;;
6342;SDS011;3204;42.698;23.298;2023-04-25T08:37:30;12.65;;;9.20;;
6342;SDS011;3204;42.698;23.298;2023-04-25T08:39:55;5.93;;;5.53;;
6342;SDS011;3204;42.698;23.298;2023-04-25T08:42:21;5.35;;;4.95;;
6342;SDS011;3204;42.698;23.298;2023-04-25T08:44:48;8.63;;;5.55;;
6342;SDS011;3204;42.698;23.298;2023-04-25T08:47:14;5.57;;;4.80;;
6342;SDS011;3204;42.698;23.298;2023-04-25T08:49:39;4.93;;;4.63;;
6342;SDS011;3204;42.698;23.298;2023-04-25T08:52:11;4.95;;;4.65;;
6342;SDS011;3204;42.698;23.298;2023-04-25T08:54:41;6.00;;;3.90;;
6342;SDS011;3204;42.698;23.298;2023-04-25T08:57:09;4.20;;;4.00;;
6342;SDS011;3204;42.698;23.298;2023-04-25T08:59:34;4.13;;;3.92;;
6342;SDS011;3204;42.698;23.298;2023-04-25T09:02:02;5.10;;;4.53;;
6342;SDS011;3204;42.698;23.298;2023-04-25T09:04:29;4.18;;;3.88;;
6342;SDS011;3204;42.698;23.298;2023-04-25T09:06:56;6.53;;;4.90;;
6342;SDS011;3204;42.698;23.298;2023-04-25T09:09:23;5.05;;;4.65;;
6342;SDS011;3204;42.698;23.298;2023-04-25T09:11:49;5.53;;;5.22;;
6342;SDS011;3204;42.698;23.298;2023-04-25T09:14:19;5.53;;;5.13;;
6342;SDS011;3204;42.698;23.298;2023-04-25T09:19:26;6.72;;;6.28;;
6342;SDS011;3204;42.698;23.298;2023-04-25T09:21:56;7.55;;;6.32;;
6342;SDS011;3204;42.698;23.298;2023-04-25T09:24:33;7.30;;;6.70;;
6342;SDS011;3204;42.698;23.298;2023-04-25T09:27:08;6.78;;;6.32;;
6342;SDS011;3204;42.698;23.298;2023-04-25T09:29:36;7.50;;;6.13;;
6342;SDS011;3204;42.698;23.298;2023-04-25T09:32:16;6.20;;;5.80;;
6342;SDS011;3204;42.698;23.298;2023-04-25T09:34:49;6.13;;;5.72;;
6342;SDS011;3204;42.698;23.298;2023-04-25T09:37:20;11.15;;;7.00;;
6342;SDS011;3204;42.698;23.298;2023-04-25T09:39:48;8.75;;;6.30;;
6342;SDS011;3204;42.698;23.298;2023-04-25T09:42:15;4.03;;;3.08;;
6342;SDS011;3204;42.698;23.298;2023-04-25T09:44:45;6.10;;;1.40;;
6342;SDS011;3204;42.698;23.298;2023-04-25T09:47:14;4.18;;;1.60;;
6342;SDS011;3204;42.698;23.298;2023-04-25T09:49:43;2.30;;;2.20;;
6342;SDS011;3204;42.698;23.298;2023-04-25T09:52:09;4.10;;;3.80;;
6342;SDS011;3204;42.698;23.298;2023-04-25T09:54:39;3.75;;;3.50;;
6342;SDS011;3204;42.698;23.298;2023-04-25T09:57:10;4.22;;;3.92;;
6342;SDS011;3204;42.698;23.298;2023-04-25T09:59:47;11.07;;;6.13;;
6342;SDS011;3204;42.698;23.298;2023-04-25T10:02:14;5.18;;;3.40;;
6342;SDS011;3204;42.698;23.298;2023-04-25T10:04:42;7.00;;;5.10;;
6342;SDS011;3204;42.698;23.298;2023-04-25T10:07:09;7.65;;;4.38;;
6342;SDS011;3204;42.698;23.298;2023-04-25T10:09:37;4.78;;;3.55;;
6342;SDS011;3204;42.698;23.298;2023-04-25T10:12:05;3.78;;;3.10;;
6342;SDS011;3204;42.698;23.298;2023-04-25T10:14:32;23.00;;;6.22;;
6342;SDS011;3204;42.698;23.298;2023-04-25T10:16:58;9.38;;;4.47;;
6342;SDS011;3204;42.698;23.298;2023-04-25T10:19:24;3.85;;;2.60;;
6342;SDS011;3204;42.698;23.298;2023-04-25T10:21:52;2.38;;;1.30;;
6342;SDS011;3204;42.698;23.298;2023-04-25T10:24:28;2.30;;;1.10;;
6342;SDS011;3204;42.698;23.298;2023-04-25T10:26:54;1.08;;;1.00;;
6342;SDS011;3204;42.698;23.298;2023-04-25T10:29:25;2.10;;;1.60;;
6342;SDS011;3204;42.698;23.298;2023-04-25T10:31:51;1.77;;;1.67;;
6342;SDS011;3204;42.698;23.298;2023-04-25T10:34:17;3.70;;;1.77;;
6342;SDS011;3204;42.698;23.298;2023-04-25T10:36:48;3.25;;;1.73;;
6342;SDS011;3204;42.698;23.298;2023-04-25T10:39:21;4.28;;;1.63;;
6342;SDS011;3204;42.698;23.298;2023-04-25T10:41:58;2.05;;;1.33;;
6342;SDS011;3204;42.698;23.298;2023-04-25T10:44:27;1.30;;;1.15;;
6342;SDS011;3204;42.698;23.298;2023-04-25T10:46:56;1.60;;;1.50;;
6342;SDS011;3204;42.698;23.298;2023-04-25T10:49:33;1.23;;;1.20;;
6342;SDS011;3204;42.698;23.298;2023-04-25T10:54:55;2.25;;;1.30;;
6342;SDS011;3204;42.698;23.298;2023-04-25T10:57:31;1.73;;;1.30;;
6342;SDS011;3204;42.698;23.298;2023-04-25T11:00:19;2.58;;;1.20;;
6342;SDS011;3204;42.698;23.298;2023-04-25T11:02:57;1.50;;;1.27;;
6342;SDS011;3204;42.698;23.298;2023-04-25T11:05:32;5.38;;;1.27;;
6342;SDS011;3204;42.698;23.298;2023-04-25T11:07:58;2.97;;;1.60;;
6342;SDS011;3204;42.698;23.298;2023-04-25T11:10:27;4.43;;;1.30;;
6342;SDS011;3204;42.698;23.298;2023-04-25T11:12:54;1.33;;;1.10;;
6342;SDS011;3204;42.698;23.298;2023-04-25T11:15:20;1.05;;;0.98;;
6342;SDS011;3204;42.698;23.298;2023-04-25T11:17:46;0.90;;;0.90;;
6342;SDS011;3204;42.698;23.298;2023-04-25T11:20:12;2.75;;;1.00;;
6342;SDS011;3204;42.698;23.298;2023-04-25T11:22:39;6.22;;;1.85;;
6342;SDS011;3204;42.698;23.298;2023-04-25T11:25:08;1.42;;;1.02;;
6342;SDS011;3204;42.698;23.298;2023-04-25T11:30:24;1.38;;;1.27;;
6342;SDS011;3204;42.698;23.298;2023-04-25T11:32:51;2.85;;;1.42;;
6342;SDS011;3204;42.698;23.298;2023-04-25T11:35:17;2.78;;;1.40;;
6342;SDS011;3204;42.698;23.298;2023-04-25T11:37:43;6.28;;;1.50;;
6342;SDS011;3204;42.698;23.298;2023-04-25T11:40:09;5.00;;;1.20;;
6342;SDS011;3204;42.698;23.298;2023-04-25T11:42:36;1.65;;;1.13;;
6342;SDS011;3204;42.698;23.298;2023-04-25T11:45:03;1.52;;;1.42;;
6342;SDS011;3204;42.698;23.298;2023-04-25T11:47:30;1.52;;;1.42;;
6342;SDS011;3204;42.698;23.298;2023-04-25T11:50:00;3.70;;;1.50;;
6342;SDS011;3204;42.698;23.298;2023-04-25T11:52:45;1.65;;;1.45;;
6342;SDS011;3204;42.698;23.298;2023-04-25T11:55:15;1.58;;;1.48;;
6342;SDS011;3204;42.698;23.298;2023-04-25T11:57:43;2.38;;;0.90;;
6342;SDS011;3204;42.698;23.298;2023-04-25T12:00:11;1.10;;;1.10;;
6342;SDS011;3204;42.698;23.298;2023-04-25T12:02:56;1.10;;;1.10;;
6342;SDS011;3204;42.698;23.298;2023-04-25T12:05:26;1.50;;;0.75;;
6342;SDS011;3204;42.698;23.298;2023-04-25T12:07:52;1.00;;;1.00;;
6342;SDS011;3204;42.698;23.298;2023-04-25T12:10:18;1.08;;;1.08;;
6342;SDS011;3204;42.698;23.298;2023-04-25T12:12:44;1.20;;;1.20;;
6342;SDS011;3204;42.698;23.298;2023-04-25T12:15:15;1.83;;;1.70;;
6342;SDS011;3204;42.698;23.298;2023-04-25T12:17:44;1.75;;;1.20;;
6342;SDS011;3204;42.698;23.298;2023-04-25T12:20:18;1.38;;;0.90;;
6342;SDS011;3204;42.698;23.298;2023-04-25T12:22:47;1.20;;;1.20;;
6342;SDS011;3204;42.698;23.298;2023-04-25T12:25:17;2.15;;;1.27;;
6342;SDS011;3204;42.698;23.298;2023-04-25T12:28:09;3.13;;;1.50;;
6342;SDS011;3204;42.698;23.298;2023-04-25T12:31:03;2.78;;;1.90;;
6342;SDS011;3204;42.698;23.298;2023-04-25T12:33:32;4.45;;;1.58;;
6342;SDS011;3204;42.698;23.298;2023-04-25T12:36:00;12.07;;;2.13;;
6342;SDS011;3204;42.698;23.298;2023-04-25T12:38:42;2.78;;;1.73;;
6342;SDS011;3204;42.698;23.298;2023-04-25T12:41:08;4.20;;;1.48;;
6342;SDS011;3204;42.698;23.298;2023-04-25T12:43:34;5.20;;;1.80;;
6342;SDS011;3204;42.698;23.298;2023-04-25T12:46:00;1.55;;;1.55;;
6342;SDS011;3204;42.698;23.298;2023-04-25T12:48:26;1.45;;;1.33;;
6342;SDS011;3204;42.698;23.298;2023-04-25T12:50:51;2.58;;;1.65;;
6342;SDS011;3204;42.698;23.298;2023-04-25T12:53:18;2.45;;;1.30;;
6342;SDS011;3204;42.698;23.298;2023-04-25T12:55:45;1.70;;;1.60;;
6342;SDS011;3204;42.698;23.298;2023-04-25T12:58:12;1.67;;;1.58;;
6342;SDS011;3204;42.698;23.298;2023-04-25T13:00:38;1.75;;;1.65;;
6342;SDS011;3204;42.698;23.298;2023-04-25T13:03:03;3.42;;;1.65;;
6342;SDS011;3204;42.698;23.298;2023-04-25T13:05:29;5.63;;;2.47;;
6342;SDS011;3204;42.698;23.298;2023-04-25T13:07:55;4.72;;;3.42;;
6342;SDS011;3204;42.698;23.298;2023-04-25T13:10:21;5.97;;;3.78;;
6342;SDS011;3204;42.698;23.298;2023-04-25T13:12:46;4.72;;;3.40;;
6342;SDS011;3204;42.698;23.298;2023-04-25T13:15:12;3.65;;;3.35;;
6342;SDS011;3204;42.698;23.298;2023-04-25T13:17:40;5.13;;;3.58;;
6342;SDS011;3204;42.698;23.298;2023-04-25T13:20:06;4.30;;;3.85;;
6342;SDS011;3204;42.698;23.298;2023-04-25T13:22:34;3.75;;;2.97;;
6342;SDS011;3204;42.698;23.298;2023-04-25T13:25:03;5.75;;;3.80;;
6342;SDS011;3204;42.698;23.298;2023-04-25T13:27:30;12.70;;;6.55;;
6342;SDS011;3204;42.698;23.298;2023-04-25T13:29:57;10.02;;;5.78;;
6342;SDS011;3204;42.698;23.298;2023-04-25T13:32:23;4.47;;;4.05;;
6342;SDS011;3204;42.698;23.298;2023-04-25T13:34:48;6.78;;;5.03;;
6342;SDS011;3204;42.698;23.298;2023-04-25T13:37:14;3.83;;;3.30;;
6342;SDS011;3204;42.698;23.298;2023-04-25T13:39:40;3.83;;;3.50;;
6342;SDS011;3204;42.698;23.298;2023-04-25T13:42:05;6.57;;;4.70;;
6342;SDS011;3204;42.698;23.298;2023-04-25T13:44:31;2.72;;;2.53;;
6342;SDS011;3204;42.698;23.298;2023-04-25T13:46:57;5.97;;;4.38;;
6342;SDS011;3204;42.698;23.298;2023-04-25T13:49:22;4.93;;;4.50;;
6342;SDS011;3204;42.698;23.298;2023-04-25T13:51:48;6.63;;;3.72;;
6342;SDS011;3204;42.698;23.298;2023-04-25T13:54:13;3.85;;;3.60;;
6342;SDS011;3204;42.698;23.298;2023-04-25T13:56:39;4.97;;;4.57;;
6342;SDS011;3204;42.698;23.298;2023-04-25T13:59:07;3.85;;;3.05;;
6342;SDS011;3204;42.698;23.298;2023-04-25T14:01:32;3.58;;;3.17;;
6342;SDS011;3204;42.698;23.298;2023-04-25T14:04:00;3.55;;;2.90;;
6342;SDS011;3204;42.698;23.298;2023-04-25T14:06:26;4.00;;;3.70;;
6342;SDS011;3204;42.698;23.298;2023-04-25T14:08:53;4.35;;;3.35;;
6342;SDS011;3204;42.698;23.298;2023-04-25T14:11:19;2.50;;;2.40;;
6342;SDS011;3204;42.698;23.298;2023-04-25T14:13:45;3.47;;;3.17;;
6342;SDS011;3204;42.698;23.298;2023-04-25T14:16:10;3.30;;;3.10;;
6342;SDS011;3204;42.698;23.298;2023-04-25T14:18:36;2.88;;;2.70;;
6342;SDS011;3204;42.698;23.298;2023-04-25T14:21:02;2.30;;;2.00;;
6342;SDS011;3204;42.698;23.298;2023-04-25T14:23:27;2.67;;;2.47;;
6342;SDS011;3204;42.698;23.298;2023-04-25T14:25:53;3.00;;;2.80;;
6342;SDS011;3204;42.698;23.298;2023-04-25T14:28:19;2.15;;;2.05;;
6342;SDS011;3204;42.698;23.298;2023-04-25T14:30:45;2.47;;;2.20;;
6342;SDS011;3204;42.698;23.298;2023-04-25T14:33:11;2.20;;;2.10;;
6342;SDS011;3204;42.698;23.298;2023-04-25T14:35:36;2.47;;;2.38;;
6342;SDS011;3204;42.698;23.298;2023-04-25T14:38:02;2.38;;;2.28;;
6342;SDS011;3204;42.698;23.298;2023-04-25T14:40:27;3.42;;;2.20;;
6342;SDS011;3204;42.698;23.298;2023-04-25T14:42:53;2.78;;;2.42;;
6342;SDS011;3204;42.698;23.298;2023-04-25T14:45:19;2.60;;;2.47;;
6342;SDS011;3204;42.698;23.298;2023-04-25T14:47:44;2.65;;;2.55;;
6342;SDS011;3204;42.698;23.298;2023-04-25T14:50:10;3.03;;;2.90;;
6342;SDS011;3204;42.698;23.298;2023-04-25T14:52:36;2.72;;;2.63;;
6342;SDS011;3204;42.698;23.298;2023-04-25T14:55:01;2.75;;;2.65;;
6342;SDS011;3204;42.698;23.298;2023-04-25T14:57:32;3.08;;;2.97;;
6342;SDS011;3204;42.698;23.298;2023-04-25T14:59:58;2.70;;;2.50;;
6342;SDS011;3204;42.698;23.298;2023-04-25T15:02:24;2.80;;;2.70;;
6342;SDS011;3204;42.698;23.298;2023-04-25T15:04:51;2.72;;;2.50;;